Artesia, New Mexico
Current Conditions -  °F | °C
As of 4:35 PM on Saturday 20 Dec 2014 (Local Time) from KATS Reporting Station
Clear Clear  
Wind Chill: 52°   Ceiling: Unl
Heat Index: 52°   Visibility: 10mi
Dew Point: 30°   Wind: 7mph
Humidity: 44%   Direction: 130°SE
Pressure: 30.01"   Gusts: NA
Location:  32.84°N, 104.39°W
Report Text: KATS 202335Z AUTO 13006KT 10SM CLR 11/M01 A3001 RMK AO2
Loading
Personal Weather Stations






























Interactive Weather Map New forecast layout! Learn more

10-Day Weather Forecast

Advertisements
Track Severe Weather on mobile